createdAt,value
2023-01-13T00:01:26.681Z,4.51
2023-01-13T00:03:53.361Z,4.56
2023-01-13T00:06:23.704Z,4.60
2023-01-13T00:08:50.795Z,4.61
2023-01-13T00:11:17.985Z,4.57
2023-01-13T00:13:44.692Z,4.63
2023-01-13T00:16:12.655Z,4.59
2023-01-13T00:18:39.365Z,4.52
2023-01-13T00:21:15.979Z,4.44
2023-01-13T00:23:42.795Z,4.54
2023-01-13T00:26:11.488Z,4.67
2023-01-13T00:28:38.179Z,4.63
2023-01-13T00:31:06.529Z,4.64
2023-01-13T00:33:33.268Z,4.70
2023-01-13T00:36:00.381Z,4.67
2023-01-13T00:38:27.204Z,4.62
2023-01-13T00:41:07.325Z,4.60
2023-01-13T00:43:34.794Z,4.74
2023-01-13T00:46:01.863Z,4.65
2023-01-13T00:48:28.795Z,4.66
2023-01-13T00:51:01.943Z,4.76
2023-01-13T00:53:29.145Z,4.71
2023-01-13T00:56:38.524Z,4.71
2023-01-13T00:59:06.230Z,4.61
2023-01-13T01:01:33.199Z,4.75
2023-01-13T01:03:59.965Z,4.78
2023-01-13T01:06:26.849Z,4.76
2023-01-13T01:08:54.145Z,4.73
2023-01-13T01:11:25.182Z,4.79
2023-01-13T01:13:52.313Z,4.77
2023-01-13T01:16:20.029Z,4.70
2023-01-13T01:18:47.359Z,4.70
2023-01-13T01:21:14.331Z,4.65
2023-01-13T01:23:41.188Z,4.70
2023-01-13T01:26:10.639Z,4.79
2023-01-13T01:28:37.295Z,4.76
2023-01-13T01:31:08.085Z,4.71
2023-01-13T01:33:34.760Z,4.71
2023-01-13T01:36:02.200Z,4.72
2023-01-13T01:38:28.856Z,4.73
2023-01-13T01:40:55.533Z,4.81
2023-01-13T01:43:22.881Z,4.68
2023-01-13T01:45:49.575Z,4.65
2023-01-13T01:48:16.275Z,4.68
2023-01-13T01:50:43.204Z,4.78
2023-01-13T01:53:12.713Z,4.73
2023-01-13T01:55:39.383Z,4.75
2023-01-13T01:58:10.075Z,4.78
2023-01-13T02:00:36.784Z,4.85
2023-01-13T02:03:03.854Z,4.82
2023-01-13T02:05:30.538Z,4.83
2023-01-13T02:07:57.737Z,4.85
2023-01-13T02:10:25.323Z,4.89
2023-01-13T02:12:51.973Z,4.85
2023-01-13T02:15:24.464Z,4.86
2023-01-13T02:18:06.639Z,4.93
2023-01-13T02:20:35.844Z,4.99
2023-01-13T02:23:24.341Z,4.91
2023-01-13T02:26:02.776Z,4.91
2023-01-13T02:28:52.454Z,4.89
2023-01-13T02:31:19.155Z,4.91
2023-01-13T02:34:04.556Z,4.93
2023-01-13T02:36:38.379Z,4.96
2023-01-13T02:39:19.176Z,4.98
2023-01-13T02:41:56.814Z,5.03
2023-01-13T02:44:27.850Z,5.00
2023-01-13T02:47:14.305Z,5.18
2023-01-13T02:49:47.009Z,5.07
2023-01-13T02:52:27.776Z,5.11
2023-01-13T02:54:55.836Z,5.04
2023-01-13T02:57:22.611Z,5.00
2023-01-13T02:59:49.267Z,4.98
2023-01-13T03:02:18.270Z,5.00
2023-01-13T03:04:46.085Z,5.09
2023-01-13T03:07:17.111Z,5.00
2023-01-13T03:09:45.876Z,5.03
2023-01-13T03:12:15.350Z,5.07
2023-01-13T03:14:44.804Z,5.07
2023-01-13T03:17:20.187Z,5.01
2023-01-13T03:19:57.670Z,4.95
2023-01-13T03:22:34.805Z,5.01
2023-01-13T03:25:13.830Z,5.19
2023-01-13T03:28:00.531Z,5.17
2023-01-13T03:30:28.697Z,5.20
2023-01-13T03:33:07.404Z,5.13
2023-01-13T03:35:39.681Z,5.10
2023-01-13T03:38:14.837Z,5.14
2023-01-13T03:40:52.537Z,5.13
2023-01-13T03:43:36.926Z,5.21
2023-01-13T03:46:07.417Z,5.26
2023-01-13T03:48:34.462Z,5.33
2023-01-13T03:51:07.140Z,5.28
2023-01-13T03:53:37.200Z,5.22
2023-01-13T03:56:17.834Z,5.36
2023-01-13T03:58:44.773Z,5.31
2023-01-13T04:01:16.515Z,5.31
2023-01-13T04:03:46.073Z,5.36
2023-01-13T04:06:15.898Z,5.47
2023-01-13T04:08:47.072Z,5.55
2023-01-13T04:11:17.929Z,5.39
2023-01-13T04:13:44.464Z,5.28
2023-01-13T04:16:11.085Z,5.35
2023-01-13T04:18:38.745Z,5.51
2023-01-13T04:21:07.101Z,5.38
2023-01-13T04:23:33.707Z,5.58
2023-01-13T04:26:00.302Z,5.65
2023-01-13T04:28:26.921Z,5.62
2023-01-13T04:30:53.547Z,5.53
2023-01-13T04:33:20.269Z,5.65
2023-01-13T04:35:47.107Z,5.49
2023-01-13T04:38:14.767Z,5.58
2023-01-13T04:40:41.489Z,5.73
2023-01-13T04:43:08.156Z,5.67
2023-01-13T04:45:34.758Z,5.67
2023-01-13T04:48:01.383Z,5.61
2023-01-13T04:50:27.926Z,5.87
2023-01-13T04:52:54.547Z,5.83
2023-01-13T04:55:22.146Z,5.74
2023-01-13T04:57:48.765Z,5.73
2023-01-13T05:00:17.254Z,5.69
2023-01-13T05:02:43.820Z,5.66
2023-01-13T05:05:10.587Z,5.72
2023-01-13T05:07:37.650Z,6.09
2023-01-13T05:10:04.467Z,6.02
2023-01-13T05:12:31.055Z,5.91
2023-01-13T05:14:57.601Z,5.85
2023-01-13T05:17:24.241Z,5.79
2023-01-13T05:19:50.976Z,5.78
2023-01-13T05:22:17.771Z,5.84
2023-01-13T05:24:44.349Z,5.85
2023-01-13T05:27:10.886Z,5.92
2023-01-13T05:29:37.529Z,5.85
2023-01-13T05:32:04.267Z,5.88
2023-01-13T05:34:32.411Z,5.91
2023-01-13T05:36:58.967Z,5.87
2023-01-13T05:39:25.582Z,5.86
2023-01-13T05:41:52.098Z,5.91
2023-01-13T05:44:18.650Z,5.97
2023-01-13T05:46:45.270Z,5.91
2023-01-13T05:49:11.844Z,5.98
2023-01-13T05:51:38.471Z,6.13
2023-01-13T05:54:05.075Z,6.25
2023-01-13T05:56:31.953Z,6.15
2023-01-13T05:58:58.541Z,6.17
2023-01-13T06:01:25.091Z,6.20
2023-01-13T06:03:51.750Z,6.12
2023-01-13T06:06:18.302Z,6.18
2023-01-13T06:08:44.876Z,6.12
2023-01-13T06:11:11.460Z,6.16
2023-01-13T06:13:38.080Z,6.17
2023-01-13T06:16:04.916Z,6.16
2023-01-13T06:18:31.767Z,6.12
2023-01-13T06:20:58.358Z,6.05
2023-01-13T06:23:24.952Z,6.04
2023-01-13T06:26:16.923Z,6.06
2023-01-13T06:28:43.448Z,6.06
2023-01-13T06:31:10.035Z,6.04
2023-01-13T06:33:37.988Z,6.14
2023-01-13T06:36:11.918Z,6.10
2023-01-13T06:38:39.636Z,6.14
2023-01-13T06:41:06.311Z,6.08
2023-01-13T06:43:32.930Z,5.99
2023-01-13T06:45:59.453Z,6.11
2023-01-13T06:48:27.839Z,6.25
2023-01-13T06:50:54.386Z,6.17
2023-01-13T06:53:21.221Z,6.11
2023-01-13T06:55:47.845Z,6.14
2023-01-13T06:58:15.185Z,6.12
2023-01-13T07:00:42.124Z,6.21
2023-01-13T07:03:15.731Z,6.18
2023-01-13T07:05:43.363Z,6.23
2023-01-13T07:08:10.165Z,6.19
2023-01-13T07:10:36.870Z,6.15
2023-01-13T07:13:04.137Z,6.12
2023-01-13T07:15:30.672Z,6.32
2023-01-13T07:17:58.593Z,6.35
2023-01-13T07:20:25.151Z,6.19
2023-01-13T07:22:54.978Z,6.12
2023-01-13T07:25:21.834Z,6.16
2023-01-13T07:27:48.363Z,6.22
2023-01-13T07:30:14.986Z,6.28
2023-01-13T07:32:41.522Z,6.26
2023-01-13T07:35:08.102Z,6.43
2023-01-13T07:37:39.110Z,6.35
2023-01-13T07:40:06.546Z,6.26
2023-01-13T07:42:33.235Z,6.22
2023-01-13T07:44:59.832Z,6.26
2023-01-13T07:47:26.368Z,6.17
2023-01-13T07:49:53.047Z,6.25
2023-01-13T07:52:19.596Z,6.28
2023-01-13T07:54:46.206Z,6.34
2023-01-13T07:57:12.789Z,6.27
2023-01-13T07:59:39.289Z,6.23
2023-01-13T08:02:06.318Z,6.19
2023-01-13T08:04:33.828Z,6.20
2023-01-13T08:07:00.353Z,6.37
2023-01-13T08:09:27.059Z,6.35
2023-01-13T08:11:56.779Z,6.28
2023-01-13T08:14:23.326Z,6.32
2023-01-13T08:16:50.179Z,6.43
2023-01-13T08:19:16.713Z,6.45
2023-01-13T08:21:43.333Z,6.41
2023-01-13T08:24:10.351Z,6.59
2023-01-13T08:26:36.935Z,6.48
2023-01-13T08:29:03.461Z,6.50
2023-01-13T08:31:30.001Z,6.54
2023-01-13T08:33:56.542Z,6.58
2023-01-13T08:36:23.103Z,6.64
2023-01-13T08:38:49.610Z,6.54
2023-01-13T08:41:16.448Z,6.60
2023-01-13T08:43:43.980Z,6.74
2023-01-13T08:46:10.660Z,6.78
2023-01-13T08:48:37.214Z,6.72
2023-01-13T08:51:05.331Z,6.75
2023-01-13T08:53:31.985Z,6.71
2023-01-13T08:55:58.556Z,6.74
2023-01-13T08:58:25.937Z,6.76
2023-01-13T09:00:52.549Z,6.78
2023-01-13T09:03:19.969Z,6.86
2023-01-13T09:05:46.503Z,6.84
2023-01-13T09:08:13.078Z,6.81
2023-01-13T09:10:39.613Z,6.90
2023-01-13T09:13:06.167Z,6.96
2023-01-13T09:15:33.980Z,6.90
2023-01-13T09:18:00.552Z,7.01
2023-01-13T09:20:27.909Z,6.96
2023-01-13T09:22:54.428Z,7.01
2023-01-13T09:25:20.977Z,7.01
2023-01-13T09:27:47.542Z,7.04
2023-01-13T09:30:14.421Z,7.05
2023-01-13T09:32:41.021Z,7.08
2023-01-13T09:35:08.888Z,7.05
2023-01-13T09:37:37.797Z,7.11
2023-01-13T09:40:06.870Z,7.17
2023-01-13T09:42:48.626Z,7.17
2023-01-13T09:45:29.932Z,7.24
2023-01-13T09:48:01.858Z,7.32
2023-01-13T09:50:37.559Z,7.33
2023-01-13T09:53:06.162Z,7.33
2023-01-13T09:55:33.162Z,7.32
2023-01-13T09:58:01.482Z,7.31
2023-01-13T10:00:36.066Z,7.37
2023-01-13T10:03:20.927Z,7.32
2023-01-13T10:05:47.501Z,7.40
2023-01-13T10:08:26.716Z,7.51
2023-01-13T10:10:58.994Z,7.81
2023-01-13T10:13:29.231Z,7.80
2023-01-13T10:16:12.897Z,8.38
2023-01-13T10:19:17.056Z,12.80
2023-01-13T10:22:02.131Z,11.12
2023-01-13T10:24:48.246Z,13.63
2023-01-13T10:27:18.911Z,14.55
2023-01-13T10:29:45.508Z,13.98
2023-01-13T10:32:12.010Z,12.57
2023-01-13T10:34:49.790Z,13.04
2023-01-13T10:37:21.234Z,15.82
2023-01-13T10:39:48.192Z,13.57
2023-01-13T10:42:19.441Z,11.65
2023-01-13T10:44:51.832Z,10.88
2023-01-13T10:47:25.779Z,10.56
2023-01-13T10:50:00.633Z,10.21
2023-01-13T10:52:34.204Z,9.63
2023-01-13T10:55:00.967Z,9.40
2023-01-13T10:57:27.733Z,9.17
2023-01-13T10:59:54.516Z,9.09
2023-01-13T11:02:30.926Z,9.01
2023-01-13T11:05:00.505Z,8.96
2023-01-13T11:07:34.266Z,8.86
2023-01-13T11:10:16.828Z,9.18
2023-01-13T11:12:53.771Z,9.04
2023-01-13T11:15:22.738Z,8.99
2023-01-13T11:18:01.094Z,8.90
2023-01-13T11:20:35.719Z,8.94
2023-01-13T11:23:07.701Z,8.97
2023-01-13T11:25:39.797Z,9.04
2023-01-13T11:28:21.962Z,9.20
2023-01-13T11:30:50.917Z,9.08
2023-01-13T11:33:27.310Z,9.08
2023-01-13T11:36:28.768Z,8.95
2023-01-13T11:39:30.843Z,8.74
2023-01-13T11:42:10.681Z,8.51
2023-01-13T11:44:40.710Z,8.36
2023-01-13T11:47:07.840Z,8.28
2023-01-13T11:49:34.654Z,8.07
2023-01-13T11:52:06.844Z,8.14
2023-01-13T11:54:44.661Z,8.01
2023-01-13T11:57:33.991Z,7.98
2023-01-13T12:00:15.749Z,8.03
2023-01-13T12:03:01.198Z,8.04
2023-01-13T12:05:40.418Z,8.13
2023-01-13T12:08:31.637Z,8.28
2023-01-13T12:11:16.642Z,8.15
2023-01-13T12:14:08.624Z,8.04
2023-01-13T12:16:36.699Z,8.10
2023-01-13T12:19:15.272Z,8.04
2023-01-13T12:21:50.596Z,8.07
2023-01-13T12:24:25.289Z,8.08
2023-01-13T12:27:02.783Z,7.80
2023-01-13T12:29:33.584Z,7.83
2023-01-13T12:32:01.677Z,7.55
2023-01-13T12:34:47.753Z,7.38
2023-01-13T12:37:14.085Z,7.19
2023-01-13T12:40:02.600Z,7.18
2023-01-13T12:42:57.011Z,7.10
2023-01-13T12:45:30.331Z,6.98
2023-01-13T12:47:57.497Z,6.96
2023-01-13T12:50:24.592Z,6.90
2023-01-13T12:52:51.718Z,6.78
2023-01-13T12:55:20.540Z,6.71
2023-01-13T12:57:59.685Z,6.57
2023-01-13T13:00:37.367Z,6.56
2023-01-13T13:03:12.956Z,6.39
2023-01-13T13:05:45.329Z,6.35
2023-01-13T13:08:18.788Z,6.26
2023-01-13T13:11:06.835Z,6.24
2023-01-13T13:13:40.914Z,6.25
2023-01-13T13:16:25.786Z,6.13
2023-01-13T13:18:53.216Z,6.03
2023-01-13T13:21:19.799Z,6.10
2023-01-13T13:24:00.337Z,5.98
2023-01-13T13:26:37.741Z,6.18
2023-01-13T13:29:31.507Z,6.25
2023-01-13T13:32:03.908Z,6.28
2023-01-13T13:34:53.286Z,6.24
2023-01-13T13:37:34.804Z,6.13
2023-01-13T13:40:03.467Z,6.13
2023-01-13T13:42:36.399Z,6.04
2023-01-13T13:45:07.404Z,5.88
2023-01-13T13:47:37.531Z,5.87
2023-01-13T13:50:15.603Z,5.75
2023-01-13T13:52:46.210Z,5.69
2023-01-13T13:55:17.157Z,5.62
2023-01-13T13:57:45.751Z,5.69
2023-01-13T14:00:15.314Z,5.64
2023-01-13T14:02:53.525Z,5.73
2023-01-13T14:05:23.971Z,5.69
2023-01-13T14:08:10.020Z,5.53
2023-01-13T14:10:37.880Z,5.51
2023-01-13T14:13:27.494Z,5.43
2023-01-13T14:16:06.467Z,5.45
2023-01-13T14:18:35.486Z,5.43
2023-01-13T14:21:17.402Z,5.33
2023-01-13T14:23:50.738Z,5.20
2023-01-13T14:26:17.270Z,5.26
2023-01-13T14:28:43.816Z,5.07
2023-01-13T14:31:12.131Z,5.04
2023-01-13T14:33:46.321Z,4.93
2023-01-13T14:36:23.070Z,4.89
2023-01-13T14:39:09.759Z,4.87
2023-01-13T14:41:42.480Z,4.95
2023-01-13T14:44:31.252Z,4.86
2023-01-13T14:47:02.624Z,4.80
2023-01-13T14:49:38.581Z,4.69
2023-01-13T14:52:11.032Z,4.73
2023-01-13T14:54:47.341Z,4.74
2023-01-13T14:57:24.629Z,4.74
2023-01-13T15:00:16.322Z,4.73
2023-01-13T15:02:47.079Z,4.70
2023-01-13T15:05:19.274Z,4.66
2023-01-13T15:07:51.745Z,4.57
2023-01-13T15:10:18.944Z,4.51
2023-01-13T15:12:45.509Z,4.45
2023-01-13T15:15:29.238Z,4.38
2023-01-13T15:17:56.240Z,4.41
2023-01-13T15:20:23.649Z,4.33
2023-01-13T15:22:50.880Z,4.37
2023-01-13T15:25:18.214Z,4.38
2023-01-13T15:27:45.076Z,4.36
2023-01-13T15:30:22.428Z,4.39
2023-01-13T15:32:48.987Z,4.13
2023-01-13T15:35:16.041Z,4.07
2023-01-13T15:37:43.273Z,4.02
2023-01-13T15:40:24.077Z,3.99
2023-01-13T15:42:50.817Z,3.92
2023-01-13T15:45:17.367Z,3.96
2023-01-13T15:47:43.886Z,3.85
2023-01-13T15:50:18.182Z,3.12
2023-01-13T15:52:44.729Z,3.69
2023-01-13T15:55:11.277Z,3.72
2023-01-13T15:57:40.160Z,3.65
2023-01-13T16:00:19.151Z,3.69
2023-01-13T16:02:45.851Z,3.58
2023-01-13T16:05:14.150Z,3.66
2023-01-13T16:07:40.860Z,3.70
2023-01-13T16:10:18.418Z,3.59
2023-01-13T16:12:44.980Z,3.39
2023-01-13T16:15:15.623Z,3.44
2023-01-13T16:17:42.768Z,3.29
2023-01-13T16:20:16.427Z,3.38
2023-01-13T16:22:43.046Z,3.34
2023-01-13T16:25:15.683Z,3.36
2023-01-13T16:27:42.284Z,3.31
2023-01-13T16:30:23.772Z,3.30
2023-01-13T16:32:50.353Z,3.18
2023-01-13T16:35:16.947Z,3.18
2023-01-13T16:37:43.519Z,3.23
2023-01-13T16:40:13.165Z,3.15
2023-01-13T16:42:39.723Z,3.01
2023-01-13T16:45:08.257Z,3.04
2023-01-13T16:47:36.586Z,3.16
2023-01-13T16:50:04.133Z,3.13
2023-01-13T16:52:30.653Z,3.24
2023-01-13T16:54:57.256Z,3.15
2023-01-13T16:57:23.854Z,3.05
2023-01-13T16:59:50.458Z,3.09
2023-01-13T17:02:17.091Z,3.07
2023-01-13T17:04:44.125Z,3.14
2023-01-13T17:07:12.825Z,3.16
2023-01-13T17:09:39.411Z,3.26
2023-01-13T17:12:06.063Z,3.13
2023-01-13T17:14:32.615Z,3.20
2023-01-13T17:16:59.213Z,3.18
2023-01-13T17:19:26.133Z,3.14
2023-01-13T17:21:52.714Z,3.17
2023-01-13T17:24:19.282Z,3.15
2023-01-13T17:26:47.320Z,3.05
2023-01-13T17:29:22.050Z,2.99
2023-01-13T17:31:52.439Z,3.09
2023-01-13T17:34:19.506Z,3.05
2023-01-13T17:36:46.154Z,2.94
2023-01-13T17:39:17.002Z,2.97
2023-01-13T17:41:44.068Z,2.95
2023-01-13T17:44:13.340Z,2.98
2023-01-13T17:46:39.915Z,2.94
2023-01-13T17:49:06.436Z,2.84
2023-01-13T17:51:34.064Z,2.80
2023-01-13T17:54:00.604Z,2.78
2023-01-13T17:56:28.041Z,2.93
2023-01-13T17:58:54.567Z,2.89
2023-01-13T18:01:21.629Z,2.86
2023-01-13T18:03:48.382Z,2.91
2023-01-13T18:06:19.187Z,2.79
2023-01-13T18:08:45.843Z,2.97
2023-01-13T18:11:12.747Z,2.84
2023-01-13T18:13:39.278Z,2.80
2023-01-13T18:16:07.220Z,2.74
2023-01-13T18:18:33.790Z,2.69
2023-01-13T18:21:01.968Z,2.67
2023-01-13T18:23:28.526Z,2.60
2023-01-13T18:25:55.071Z,2.61
2023-01-13T18:28:21.578Z,2.56
2023-01-13T18:33:39.285Z,2.49
2023-01-13T18:36:07.368Z,2.42
2023-01-13T18:38:34.226Z,2.47
2023-01-13T18:41:00.831Z,2.42
2023-01-13T18:43:30.963Z,2.43
2023-01-13T18:45:57.563Z,2.45
2023-01-13T18:48:24.078Z,2.44
2023-01-13T18:50:50.596Z,2.39
2023-01-13T18:53:17.297Z,2.39
2023-01-13T18:55:43.823Z,2.28
2023-01-13T18:58:10.317Z,2.24
2023-01-13T19:00:36.917Z,2.19
2023-01-13T19:05:32.758Z,2.11
2023-01-13T19:07:59.360Z,2.09
2023-01-13T19:10:25.915Z,1.90
2023-01-13T19:12:52.435Z,1.86
2023-01-13T19:15:20.164Z,1.85
2023-01-13T19:17:46.737Z,1.88
2023-01-13T19:20:13.322Z,1.84
2023-01-13T19:22:39.885Z,1.91
2023-01-13T19:25:06.589Z,1.90
2023-01-13T19:27:33.146Z,2.00
2023-01-13T19:29:59.735Z,2.13
2023-01-13T19:32:26.709Z,2.05
2023-01-13T19:34:53.620Z,2.05
2023-01-13T19:37:20.196Z,2.11
2023-01-13T19:39:47.244Z,2.03
2023-01-13T19:42:13.834Z,1.85
2023-01-13T19:44:40.381Z,1.84
2023-01-13T19:47:07.756Z,1.78
2023-01-13T19:49:34.527Z,1.74
2023-01-13T19:52:01.087Z,1.70
2023-01-13T19:54:27.909Z,1.72
2023-01-13T19:56:54.458Z,1.77
2023-01-13T19:59:21.013Z,1.76
2023-01-13T20:01:50.832Z,1.70
2023-01-13T20:04:17.402Z,1.72
2023-01-13T20:06:44.105Z,1.75
2023-01-13T20:09:10.873Z,1.72
2023-01-13T20:11:37.423Z,1.66
2023-01-13T20:14:03.997Z,1.60
2023-01-13T20:16:30.772Z,1.64
2023-01-13T20:18:57.312Z,1.78
2023-01-13T20:21:23.865Z,1.78
2023-01-13T20:23:50.983Z,1.79
2023-01-13T20:26:18.002Z,1.83
2023-01-13T20:28:44.596Z,1.92
2023-01-13T20:31:11.818Z,2.03
2023-01-13T20:33:38.517Z,2.13
2023-01-13T20:36:05.922Z,2.19
2023-01-13T20:38:32.485Z,2.20
2023-01-13T20:40:59.759Z,2.19
2023-01-13T20:43:26.341Z,2.34
2023-01-13T20:45:52.936Z,2.30
2023-01-13T20:48:19.906Z,2.22
2023-01-13T20:50:52.143Z,2.19
2023-01-13T20:53:18.711Z,2.21
2023-01-13T20:55:45.289Z,2.28
2023-01-13T20:58:12.086Z,2.40
2023-01-13T21:00:38.681Z,2.64
2023-01-13T21:03:05.703Z,2.80
2023-01-13T21:05:32.243Z,2.79
2023-01-13T21:07:58.774Z,2.80
2023-01-13T21:10:25.476Z,2.87
2023-01-13T21:12:52.009Z,2.88
2023-01-13T21:15:18.574Z,2.98
2023-01-13T21:17:45.694Z,3.01
2023-01-13T21:20:13.685Z,2.89
2023-01-13T21:22:43.503Z,3.00
2023-01-13T21:25:10.174Z,3.02
2023-01-13T21:27:36.706Z,2.97
2023-01-13T21:30:03.372Z,2.99
2023-01-13T21:32:30.655Z,2.97
2023-01-13T21:34:57.589Z,2.90
2023-01-13T21:37:24.367Z,2.96
2023-01-13T21:39:51.261Z,2.89
2023-01-13T21:42:17.829Z,2.90
2023-01-13T21:44:44.362Z,2.86
2023-01-13T21:47:18.489Z,2.79
2023-01-13T21:49:45.040Z,2.75
2023-01-13T21:52:11.937Z,2.71
2023-01-13T21:54:38.679Z,2.67
2023-01-13T21:57:05.177Z,2.68
2023-01-13T21:59:32.632Z,2.68
2023-01-13T22:02:23.437Z,2.66
2023-01-13T22:04:45.730Z,2.53
2023-01-13T22:07:12.292Z,2.57
2023-01-13T22:09:38.869Z,2.56
2023-01-13T22:12:05.612Z,2.48
2023-01-13T22:14:32.611Z,2.48
2023-01-13T22:16:59.237Z,2.53
2023-01-13T22:19:25.787Z,2.53
2023-01-13T22:21:52.358Z,2.51
2023-01-13T22:24:18.917Z,2.38
2023-01-13T22:26:45.478Z,2.49
2023-01-13T22:29:12.055Z,2.43
2023-01-13T22:31:39.293Z,2.56
2023-01-13T22:34:05.857Z,2.48
2023-01-13T22:36:32.432Z,2.48
2023-01-13T22:38:59.015Z,2.43
2023-01-13T22:41:25.577Z,2.47
2023-01-13T22:43:52.367Z,2.49
2023-01-13T22:46:19.007Z,2.37
2023-01-13T22:48:45.573Z,2.40
2023-01-13T22:51:13.965Z,2.37
2023-01-13T22:53:40.722Z,2.33
2023-01-13T22:56:07.624Z,2.30
2023-01-13T22:58:34.165Z,2.37
2023-01-13T23:01:08.367Z,2.39
2023-01-13T23:03:34.945Z,2.39
2023-01-13T23:06:01.536Z,2.40
2023-01-13T23:08:28.142Z,2.44
2023-01-13T23:11:09.485Z,2.43
2023-01-13T23:13:36.136Z,2.49
2023-01-13T23:16:03.677Z,2.56
2023-01-13T23:18:30.390Z,2.59
2023-01-13T23:20:56.976Z,2.54
2023-01-13T23:23:23.472Z,1.90
2023-01-13T23:25:50.994Z,2.62
2023-01-13T23:28:17.663Z,2.59
2023-01-13T23:30:44.196Z,2.64
2023-01-13T23:33:10.800Z,2.59
2023-01-13T23:35:37.397Z,2.66
2023-01-13T23:38:04.095Z,2.61
2023-01-13T23:40:30.626Z,2.61
2023-01-13T23:42:57.168Z,2.59
2023-01-13T23:45:23.731Z,2.61
2023-01-13T23:47:50.301Z,2.64
2023-01-13T23:50:17.187Z,2.63
2023-01-13T23:52:43.809Z,2.59
2023-01-13T23:55:10.338Z,2.64
2023-01-13T23:57:36.873Z,2.66
